Time;durP1;ratioP1;P1;durP2;ratioP2;P2;SDS_P1;SDS_P2;PMS_P1;PMS_P2;Temp;Humidity;BMP_temperature;BMP_pressure;BME280_temperature;BME280_humidity;BME280_pressure;Samples;Min_cycle;Max_cycle;Signal;HPM_P1;HPM_P2
2022/02/16 00:00:10;;;;;;;2.40;1.43;;;5.40;99.90;5.30;99964.00;;;;4977370;28;91918;-67
2022/02/16 00:02:38;;;;;;;1.97;1.10;;;5.40;99.90;5.30;99952.00;;;;4974514;28;89074;-69
2022/02/16 00:05:08;;;;;;;1.43;1.30;;;5.50;99.90;5.30;99945.00;;;;4977643;28;88912;-67
2022/02/16 00:07:37;;;;;;;4.00;1.60;;;5.50;99.90;5.30;99949.00;;;;4976459;28;88368;-68
2022/02/16 00:10:03;;;;;;;1.70;1.23;;;5.50;99.90;5.30;99929.00;;;;4977818;28;87861;-68
2022/02/16 00:12:29;;;;;;;1.43;1.33;;;5.40;99.90;5.40;99944.00;;;;4991179;28;93278;-67
2022/02/16 00:14:54;;;;;;;1.43;1.33;;;5.50;99.90;5.40;99935.00;;;;4977224;28;87798;-66
2022/02/16 00:17:20;;;;;;;1.87;1.40;;;5.50;99.90;5.40;99933.00;;;;4976625;28;89258;-67
2022/02/16 00:19:46;;;;;;;2.63;1.33;;;5.60;99.90;5.40;99931.00;;;;4977722;28;86998;-67
2022/02/16 00:22:11;;;;;;;0.83;0.77;;;5.60;99.90;5.40;99929.00;;;;4976124;28;108786;-68
2022/02/16 00:24:37;;;;;;;1.80;1.63;;;5.60;99.90;5.50;99920.00;;;;4967135;28;116995;-67
2022/02/16 00:27:03;;;;;;;1.60;0.73;;;5.60;99.90;5.50;99914.00;;;;4956185;28;89954;-67
2022/02/16 00:29:28;;;;;;;1.70;1.10;;;5.60;99.90;5.50;99913.00;;;;4956653;28;94752;-67
2022/02/16 00:31:54;;;;;;;0.80;0.80;;;5.60;99.90;5.50;99913.00;;;;4956243;28;109673;-67
2022/02/16 00:34:20;;;;;;;3.93;1.27;;;5.70;99.90;5.60;99907.00;;;;4957126;28;87868;-67
2022/02/16 00:36:46;;;;;;;1.03;0.93;;;4.60;99.90;5.60;99913.00;;;;4957805;28;117485;-67
2022/02/16 00:39:11;;;;;;;1.40;1.13;;;5.70;99.90;5.60;99899.00;;;;4957660;28;87987;-69
2022/02/16 00:41:37;;;;;;;1.40;1.30;;;5.70;99.90;5.50;99902.00;;;;4971572;28;87970;-67
2022/02/16 00:44:03;;;;;;;1.13;1.03;;;5.70;99.90;5.50;99899.00;;;;4956405;28;117746;-67
2022/02/16 00:46:29;;;;;;;1.77;1.00;;;5.60;99.90;5.50;99887.00;;;;4956956;28;87656;-66
2022/02/16 00:48:55;;;;;;;0.90;0.73;;;5.70;99.90;5.50;99892.00;;;;4976350;28;87656;-68
2022/02/16 00:51:21;;;;;;;1.70;1.00;;;5.60;99.90;5.50;99890.00;;;;4976108;28;88969;-68
2022/02/16 00:53:46;;;;;;;1.07;0.83;;;5.60;99.90;5.50;99885.00;;;;4963114;28;103566;-67
2022/02/16 00:56:12;;;;;;;1.17;1.00;;;5.60;99.90;5.50;99887.00;;;;4976620;28;91779;-66
2022/02/16 00:58:38;;;;;;;1.27;1.03;;;5.60;99.90;5.50;99878.00;;;;4957825;28;109782;-66
2022/02/16 01:01:03;;;;;;;2.13;0.90;;;5.60;99.90;5.50;99868.00;;;;4955629;28;107842;-67
2022/02/16 01:03:29;;;;;;;2.10;1.00;;;5.60;99.90;5.50;99877.00;;;;4966319;28;117389;-66
2022/02/16 01:05:55;;;;;;;0.87;0.80;;;5.60;99.90;5.50;99865.00;;;;4975714;28;116618;-67
2022/02/16 01:08:21;;;;;;;2.20;1.20;;;5.60;99.90;5.50;99867.00;;;;4975053;28;86986;-66
2022/02/16 01:10:46;;;;;;;1.60;1.13;;;5.60;99.90;5.50;99864.00;;;;4976917;28;87681;-67
2022/02/16 01:13:12;;;;;;;1.63;0.70;;;5.60;99.90;5.50;99864.00;;;;4974595;28;118084;-66
2022/02/16 01:15:38;;;;;;;1.50;0.90;;;5.60;99.90;5.50;99881.00;;;;4975131;28;117606;-66
2022/02/16 01:18:03;;;;;;;0.60;0.60;;;5.60;99.90;5.40;99873.00;;;;4975748;28;87635;-66
2022/02/16 01:20:29;;;;;;;2.97;1.00;;;5.60;99.90;5.40;99862.00;;;;4976419;28;97179;-66
2022/02/16 01:22:55;;;;;;;7.03;1.30;;;6.10;99.90;5.40;99859.00;;;;4964065;28;88975;-67
2022/02/16 01:25:20;;;;;;;4.60;1.37;;;5.50;99.90;5.40;99847.00;;;;4955813;28;117699;-65
2022/02/16 01:27:46;;;;;;;2.10;0.93;;;5.50;99.90;5.40;99851.00;;;;4955363;28;108591;-66
2022/02/16 01:30:12;;;;;;;1.50;1.07;;;5.50;99.90;5.40;99845.00;;;;4955414;28;92562;-67
2022/02/16 01:32:38;;;;;;;1.83;1.23;;;5.60;99.90;5.40;99849.00;;;;4956191;28;87753;-67
2022/02/16 01:35:05;;;;;;;1.90;0.83;;;5.50;99.90;5.40;99839.00;;;;4957921;28;88109;-66
2022/02/16 01:37:31;;;;;;;0.83;0.67;;;5.60;99.90;5.40;99836.00;;;;4956092;28;90812;-68
2022/02/16 01:39:57;;;;;;;1.30;0.90;;;5.60;99.90;5.50;99827.00;;;;4955271;28;96290;-67
2022/02/16 01:42:23;;;;;;;1.00;0.60;;;5.60;99.90;5.50;99844.00;;;;4969464;28;116586;-66
2022/02/16 01:44:49;;;;;;;0.87;0.80;;;5.50;99.90;5.50;99836.00;;;;4955778;28;104722;-67
2022/02/16 01:47:15;;;;;;;1.93;1.10;;;5.60;99.90;5.50;99832.00;;;;4955929;28;88179;-67
2022/02/16 01:49:42;;;;;;;0.70;0.70;;;5.60;99.90;5.50;99836.00;;;;4957345;28;100690;-66
2022/02/16 01:52:09;;;;;;;0.70;0.60;;;5.60;99.90;5.50;99830.00;;;;4955697;28;88887;-66
2022/02/16 01:54:35;;;;;;;0.57;0.57;;;5.60;99.90;5.60;99826.00;;;;4956296;28;88083;-68
2022/02/16 01:57:01;;;;;;;0.83;0.80;;;5.70;99.90;5.60;99821.00;;;;4971603;28;86955;-66
2022/02/16 01:59:27;;;;;;;2.03;0.93;;;5.70;99.90;5.60;99821.00;;;;4975854;28;87872;-67
2022/02/16 02:01:53;;;;;;;2.20;0.97;;;5.70;99.90;5.60;99812.00;;;;4971332;28;88991;-66
2022/02/16 02:04:20;;;;;;;1.40;1.00;;;5.70;99.90;5.60;99803.00;;;;4954313;28;117559;-66
2022/02/16 02:06:46;;;;;;;0.60;0.60;;;5.80;99.90;5.60;99800.00;;;;4956280;28;88005;-66
2022/02/16 02:09:13;;;;;;;1.50;0.80;;;5.80;99.90;5.60;99792.00;;;;4970537;28;87743;-66
2022/02/16 02:11:40;;;;;;;4.10;1.20;;;5.70;99.90;5.70;99790.00;;;;4955680;28;106283;-67
2022/02/16 02:14:08;;;;;;;1.07;0.60;;;5.70;99.90;5.70;99789.00;;;;4956250;28;93159;-66
2022/02/16 02:16:36;;;;;;;1.37;0.80;;;5.80;99.90;5.70;99783.00;;;;4959864;28;87876;-66
2022/02/16 02:19:04;;;;;;;1.27;0.80;;;5.80;99.90;5.70;99791.00;;;;4960817;28;94792;-66
2022/02/16 02:21:29;;;;;;;0.80;0.77;;;5.80;99.90;5.70;99790.00;;;;4960250;28;87534;-66
2022/02/16 02:23:57;;;;;;;1.27;1.00;;;5.90;99.90;5.70;99788.00;;;;4958635;28;91602;-66
2022/02/16 02:26:23;;;;;;;1.47;0.90;;;5.90;99.90;5.70;99779.00;;;;4959871;28;87904;-67
2022/02/16 02:28:49;;;;;;;1.23;0.70;;;5.80;99.90;5.80;99773.00;;;;4972922;28;89129;-66
2022/02/16 02:31:15;;;;;;;0.77;0.77;;;5.90;99.90;5.80;99768.00;;;;4959227;28;88138;-67
2022/02/16 02:33:41;;;;;;;0.97;0.80;;;5.90;99.90;5.80;99774.00;;;;4957662;28;116982;-67
2022/02/16 02:36:08;;;;;;;0.77;0.60;;;5.90;99.90;5.80;99755.00;;;;4959355;28;87817;-67
2022/02/16 02:38:34;;;;;;;1.23;0.90;;;6.00;99.90;5.90;99763.00;;;;4958700;28;88037;-67
2022/02/16 02:41:03;;;;;;;1.10;1.00;;;6.10;99.90;5.90;99747.00;;;;4958827;28;101361;-68
2022/02/16 02:43:30;;;;;;;0.73;0.63;;;6.00;99.90;6.00;99745.00;;;;4959905;28;90565;-67
2022/02/16 02:45:57;;;;;;;0.80;0.60;;;6.10;99.90;6.00;99744.00;;;;4969258;28;87329;-66
2022/02/16 02:48:26;;;;;;;0.87;0.80;;;6.10;99.90;6.00;99730.00;;;;4978473;28;87893;-67
2022/02/16 02:50:53;;;;;;;4.23;0.70;;;6.10;99.90;6.00;99733.00;;;;4977546;28;117788;-67
2022/02/16 02:53:19;;;;;;;0.80;0.63;;;6.10;99.90;6.00;99730.00;;;;4977954;28;89389;-68
2022/02/16 02:55:45;;;;;;;2.53;1.00;;;6.20;99.90;6.10;99726.00;;;;4979071;28;87837;-68
2022/02/16 02:58:10;;;;;;;1.50;0.83;;;6.20;99.90;6.10;99720.00;;;;4978632;28;87642;-67
2022/02/16 03:00:37;;;;;;;1.03;0.77;;;6.20;99.90;6.10;99723.00;;;;4977044;28;117934;-67
2022/02/16 03:03:02;;;;;;;2.10;0.90;;;6.40;99.90;6.10;99725.00;;;;4965889;28;117686;-67
2022/02/16 03:05:28;;;;;;;1.23;0.90;;;6.20;99.90;6.10;99727.00;;;;4958539;28;110854;-67
2022/02/16 03:07:54;;;;;;;0.57;0.57;;;6.20;99.90;6.10;99712.00;;;;4961318;28;87613;-67
2022/02/16 03:10:20;;;;;;;0.80;0.80;;;6.30;99.90;6.10;99705.00;;;;4977510;28;107289;-68
2022/02/16 03:12:45;;;;;;;1.40;0.40;;;6.20;99.90;6.10;99701.00;;;;4972905;28;118023;-67
2022/02/16 03:15:11;;;;;;;2.00;0.40;;;6.20;99.90;6.10;99707.00;;;;4957845;28;111088;-67
2022/02/16 03:17:37;;;;;;;0.60;0.60;;;6.10;99.90;6.10;99705.00;;;;4956720;28;108763;-67
2022/02/16 03:20:05;;;;;;;0.70;0.67;;;6.20;99.90;6.10;99697.00;;;;4957443;28;116447;-68
2022/02/16 03:22:31;;;;;;;2.47;0.87;;;6.20;99.90;6.10;99694.00;;;;4957450;28;105849;-67
2022/02/16 03:24:57;;;;;;;2.53;1.00;;;6.20;99.90;6.10;99687.00;;;;4957273;28;92209;-66
2022/02/16 03:27:23;;;;;;;0.87;0.87;;;6.30;99.90;6.20;99695.00;;;;4965600;28;88222;-67
2022/02/16 03:29:48;;;;;;;1.33;0.70;;;6.30;99.90;6.20;99679.00;;;;4976641;28;115929;-67
2022/02/16 03:32:15;;;;;;;0.50;0.50;;;6.30;99.90;6.30;99682.00;;;;4970927;28;118012;-67
2022/02/16 03:34:41;;;;;;;0.40;0.40;;;6.40;99.90;6.30;99683.00;;;;4957936;28;87191;-66
2022/02/16 03:37:08;;;;;;;0.67;0.47;;;6.40;99.90;6.40;99682.00;;;;4959535;28;87839;-66
2022/02/16 03:39:35;;;;;;;1.03;0.60;;;6.50;99.90;6.40;99678.00;;;;4957539;28;88805;-67
2022/02/16 03:42:01;;;;;;;0.73;0.60;;;6.50;99.90;6.50;99680.00;;;;4974473;28;91450;-66
2022/02/16 03:44:27;;;;;;;0.50;0.50;;;6.50;99.90;6.50;99658.00;;;;4977411;28;88206;-67
2022/02/16 03:46:55;;;;;;;0.37;0.37;;;6.60;99.90;6.50;99664.00;;;;4977938;28;95169;-67
2022/02/16 03:49:21;;;;;;;1.40;0.53;;;6.60;99.90;6.60;99661.00;;;;4977252;28;88794;-66
2022/02/16 03:51:47;;;;;;;1.33;0.90;;;6.70;99.90;6.60;99658.00;;;;4976132;28;104242;-66
2022/02/16 03:54:13;;;;;;;2.90;0.70;;;6.70;99.90;6.70;99658.00;;;;4976416;28;109825;-67
2022/02/16 03:56:39;;;;;;;0.73;0.73;;;6.40;99.90;6.70;99667.00;;;;4977533;28;88010;-66
2022/02/16 03:59:04;;;;;;;4.57;0.80;;;6.80;99.90;6.80;99654.00;;;;4977587;28;116875;-66
2022/02/16 04:01:30;;;;;;;4.43;0.60;;;6.80;99.90;6.90;99647.00;;;;4976455;28;117414;-67
2022/02/16 04:03:56;;;;;;;0.80;0.80;;;7.00;99.90;6.90;99647.00;;;;4976734;28;88890;-66
2022/02/16 04:06:22;;;;;;;0.70;0.70;;;7.00;99.90;6.90;99642.00;;;;4970783;28;88644;-66
2022/02/16 04:08:48;;;;;;;0.60;0.50;;;7.00;99.90;7.00;99641.00;;;;4970928;28;88339;-66
2022/02/16 04:11:14;;;;;;;1.67;0.83;;;7.00;99.90;7.00;99631.00;;;;4976914;28;88720;-67
2022/02/16 04:13:40;;;;;;;0.83;0.67;;;7.10;99.90;7.10;99629.00;;;;4977648;28;87833;-68
2022/02/16 04:16:06;;;;;;;1.40;0.77;;;7.20;99.90;7.10;99622.00;;;;4977336;28;87728;-67
2022/02/16 04:18:31;;;;;;;0.70;0.70;;;7.20;99.90;7.10;99620.00;;;;4975284;28;118183;-67
2022/02/16 04:20:57;;;;;;;0.87;0.47;;;7.30;99.90;7.20;99616.00;;;;4977129;28;88502;-67
2022/02/16 04:23:23;;;;;;;1.67;0.67;;;7.20;99.90;7.20;99614.00;;;;4961816;28;87289;-66
2022/02/16 04:25:49;;;;;;;1.23;0.63;;;7.30;99.90;7.20;99611.00;;;;4957694;28;87631;-67
2022/02/16 04:28:14;;;;;;;2.53;0.60;;;6.90;99.90;7.20;99611.00;;;;4956482;28;116047;-67
2022/02/16 04:30:40;;;;;;;0.97;0.67;;;7.30;99.90;7.20;99612.00;;;;4955448;28;117557;-68
2022/02/16 04:33:07;;;;;;;0.67;0.67;;;7.40;99.90;7.30;99604.00;;;;4969659;28;109652;-67
2022/02/16 04:35:33;;;;;;;0.83;0.60;;;7.30;99.70;7.30;99604.00;;;;4957488;28;87907;-67
2022/02/16 04:37:59;;;;;;;0.97;0.77;;;7.30;99.90;7.30;99611.00;;;;4955031;28;118021;-67
2022/02/16 04:40:24;;;;;;;0.60;0.43;;;7.40;99.90;7.30;99596.00;;;;4956866;28;96633;-68
2022/02/16 04:42:50;;;;;;;1.13;0.70;;;7.40;99.60;7.40;99590.00;;;;4955846;28;112040;-67
2022/02/16 04:45:16;;;;;;;4.30;0.80;;;7.40;99.40;7.30;99596.00;;;;4956540;28;108799;-67
2022/02/16 04:47:43;;;;;;;1.20;0.50;;;7.50;99.20;7.40;99596.00;;;;4956657;28;108689;-67
2022/02/16 04:50:09;;;;;;;1.43;0.60;;;7.40;99.20;7.40;99594.00;;;;4971003;28;87825;-67
2022/02/16 04:52:35;;;;;;;2.00;1.00;;;7.50;99.10;7.40;99589.00;;;;4958201;28;87912;-67
2022/02/16 04:55:08;;;;;;;1.17;0.80;;;7.50;99.20;7.40;99586.00;;;;4956580;28;88690;-67
2022/02/16 04:57:34;;;;;;;0.70;0.60;;;7.50;99.20;7.40;99584.00;;;;4955748;28;104559;-67
2022/02/16 05:00:02;;;;;;;0.67;0.50;;;7.50;98.80;7.40;99584.00;;;;4957033;28;87960;-68
2022/02/16 05:02:28;;;;;;;0.57;0.57;;;7.50;99.00;7.40;99585.00;;;;4964539;28;87599;-66
2022/02/16 05:04:55;;;;;;;0.40;0.30;;;7.50;99.10;7.40;99573.00;;;;4971493;28;87751;-66
2022/02/16 05:07:22;;;;;;;1.90;0.60;;;7.50;99.40;7.40;99584.00;;;;4988750;28;117882;-66
2022/02/16 05:09:48;;;;;;;0.77;0.60;;;7.40;99.30;7.40;99579.00;;;;4972407;28;88173;-66
2022/02/16 05:12:15;;;;;;;0.93;0.57;;;7.50;99.70;7.40;99578.00;;;;4977653;28;90626;-66
2022/02/16 05:14:41;;;;;;;0.30;0.20;;;7.50;99.60;7.40;99565.00;;;;4975912;28;95397;-67
2022/02/16 05:17:07;;;;;;;0.87;0.50;;;7.50;99.50;7.40;99566.00;;;;4991000;28;87854;-66
2022/02/16 05:19:33;;;;;;;2.40;0.90;;;7.50;99.60;7.40;99564.00;;;;4975715;28;88731;-66
2022/02/16 05:21:59;;;;;;;0.30;0.30;;;7.50;99.90;7.40;99561.00;;;;4975594;28;96795;-67
2022/02/16 05:24:25;;;;;;;0.40;0.33;;;7.50;99.70;7.40;99561.00;;;;4989700;28;87777;-66
2022/02/16 05:26:52;;;;;;;1.17;0.67;;;7.50;99.30;7.40;99568.00;;;;4974479;28;88544;-66
2022/02/16 05:29:18;;;;;;;0.57;0.43;;;7.50;99.30;7.40;99564.00;;;;4975675;28;88987;-67
2022/02/16 05:31:44;;;;;;;0.40;0.40;;;7.50;99.30;7.40;99548.00;;;;4969563;28;90956;-66
2022/02/16 05:34:10;;;;;;;0.80;0.57;;;7.50;99.40;7.40;99548.00;;;;4954955;28;110017;-66
2022/02/16 05:36:37;;;;;;;0.30;0.30;;;7.50;99.30;7.40;99553.00;;;;4956405;28;87938;-66
2022/02/16 05:39:04;;;;;;;0.87;0.50;;;7.40;99.20;7.40;99547.00;;;;4957092;28;105137;-67
2022/02/16 05:41:30;;;;;;;0.50;0.50;;;7.50;99.30;7.40;99534.00;;;;4952926;28;96363;-67
2022/02/16 05:43:57;;;;;;;0.37;0.30;;;7.50;99.40;7.40;99530.00;;;;4970987;28;94223;-68
2022/02/16 05:46:23;;;;;;;0.60;0.27;;;7.50;99.60;7.40;99523.00;;;;4973273;28;91758;-66
2022/02/16 05:48:48;;;;;;;1.30;0.53;;;7.40;99.80;7.40;99525.00;;;;4960860;28;88322;-67
2022/02/16 05:51:14;;;;;;;1.63;0.20;;;7.50;99.60;7.40;99530.00;;;;4967336;28;110285;-67
2022/02/16 05:53:40;;;;;;;1.47;0.60;;;7.50;99.60;7.40;99530.00;;;;4971772;28;109383;-67
2022/02/16 05:56:06;;;;;;;0.70;0.50;;;7.50;99.60;7.40;99536.00;;;;4965782;28;88082;-67
2022/02/16 05:58:31;;;;;;;0.93;0.53;;;7.40;99.60;7.40;99532.00;;;;4969105;28;118044;-67
2022/02/16 06:00:59;;;;;;;3.20;0.60;;;7.60;99.70;7.40;99527.00;;;;4972253;28;97468;-66
2022/02/16 06:03:25;;;;;;;0.43;0.43;;;7.50;99.70;7.40;99520.00;;;;4969231;28;87638;-66
2022/02/16 06:05:51;;;;;;;0.83;0.67;;;7.50;99.70;7.40;99513.00;;;;4969088;28;117068;-66
2022/02/16 06:08:17;;;;;;;3.40;0.50;;;7.50;99.90;7.40;99518.00;;;;4969491;28;89014;-66
2022/02/16 06:10:43;;;;;;;0.50;0.50;;;7.50;99.90;7.40;99514.00;;;;4969848;28;93992;-66
2022/02/16 06:13:08;;;;;;;0.73;0.50;;;7.50;99.90;7.40;99508.00;;;;4972573;28;108472;-66
2022/02/16 06:15:34;;;;;;;0.30;0.30;;;7.50;99.90;7.40;99518.00;;;;4953127;28;117182;-65
2022/02/16 06:18:00;;;;;;;0.33;0.33;;;7.50;99.90;7.40;99502.00;;;;4954882;28;117787;-67
2022/02/16 06:20:26;;;;;;;0.60;0.50;;;7.50;99.90;7.40;99496.00;;;;4954716;28;110286;-67
2022/02/16 06:22:53;;;;;;;1.17;0.50;;;7.50;99.90;7.40;99511.00;;;;4955804;28;87717;-66
2022/02/16 06:25:21;;;;;;;0.63;0.37;;;7.50;99.90;7.40;99506.00;;;;4955784;28;87634;-68
2022/02/16 06:27:47;;;;;;;1.77;0.43;;;7.50;99.90;7.40;99497.00;;;;4957381;28;88209;-67
2022/02/16 06:30:12;;;;;;;0.77;0.40;;;7.60;99.90;7.50;99502.00;;;;4954943;28;111023;-67
2022/02/16 06:32:38;;;;;;;1.47;0.50;;;7.50;99.90;7.50;99491.00;;;;4959054;28;99071;-67
2022/02/16 06:35:05;;;;;;;0.20;0.20;;;7.50;99.90;7.50;99497.00;;;;4962790;28;89505;-68
2022/02/16 06:37:31;;;;;;;0.50;0.40;;;7.60;99.90;7.40;99494.00;;;;4974409;28;104807;-67
2022/02/16 06:39:56;;;;;;;0.83;0.53;;;7.50;99.90;7.40;99484.00;;;;4974868;28;96117;-65
2022/02/16 06:42:22;;;;;;;0.83;0.40;;;7.50;99.90;7.30;99487.00;;;;4973791;28;108601;-65
2022/02/16 06:44:48;;;;;;;0.90;0.50;;;7.50;99.90;7.30;99483.00;;;;4973994;28;89050;-66
2022/02/16 06:47:14;;;;;;;0.20;0.20;;;7.40;99.90;7.30;99498.00;;;;4973145;28;91909;-66
2022/02/16 06:49:40;;;;;;;1.50;0.53;;;7.40;99.90;7.20;99491.00;;;;4975664;28;86866;-68
2022/02/16 06:52:06;;;;;;;3.50;0.50;;;7.40;99.90;7.20;99492.00;;;;4970291;28;87903;-66
2022/02/16 06:54:32;;;;;;;0.23;0.23;;;7.30;99.90;7.20;99478.00;;;;4959438;28;88396;-67
2022/02/16 06:56:59;;;;;;;1.83;0.50;;;7.20;99.90;7.10;99476.00;;;;4970727;28;88720;-68
2022/02/16 06:59:25;;;;;;;0.30;0.30;;;7.30;99.90;7.10;99473.00;;;;4955188;28;98719;-66
2022/02/16 07:01:50;;;;;;;0.40;0.40;;;7.20;99.90;7.10;99470.00;;;;4961406;28;88443;-67
2022/02/16 07:04:16;;;;;;;0.47;0.47;;;7.20;99.90;7.10;99468.00;;;;4976923;28;118885;-67
2022/02/16 07:06:41;;;;;;;0.50;0.40;;;7.20;99.90;7.10;99468.00;;;;4958240;28;105578;-66
2022/02/16 07:09:07;;;;;;;0.47;0.40;;;7.20;99.90;7.10;99461.00;;;;4958994;28;110028;-66
2022/02/16 07:11:33;;;;;;;0.47;0.33;;;7.20;99.90;7.10;99478.00;;;;4969224;28;109979;-66
2022/02/16 07:13:59;;;;;;;0.23;0.23;;;7.20;99.90;7.20;99464.00;;;;4977539;28;116246;-66
2022/02/16 07:16:25;;;;;;;1.20;0.37;;;7.20;99.90;7.20;99458.00;;;;4978312;28;87993;-67
2022/02/16 07:18:50;;;;;;;1.50;0.30;;;7.20;99.90;7.30;99459.00;;;;4975396;28;110609;-66
2022/02/16 07:21:17;;;;;;;0.20;0.20;;;7.30;99.90;7.30;99455.00;;;;4977507;28;107115;-67
2022/02/16 07:23:46;;;;;;;0.43;0.43;;;7.30;99.90;7.40;99448.00;;;;4977316;28;88840;-67
2022/02/16 07:26:12;;;;;;;1.07;0.57;;;7.40;99.90;7.40;99423.00;;;;4977990;28;87971;-67
2022/02/16 07:28:38;;;;;;;0.30;0.20;;;7.50;99.90;7.40;99448.00;;;;4960168;28;87689;-67
2022/02/16 07:31:04;;;;;;;3.37;0.80;;;7.40;99.90;7.40;99432.00;;;;4957553;28;108895;-67
2022/02/16 07:33:29;;;;;;;0.27;0.20;;;7.50;99.90;7.50;99434.00;;;;4956681;28;116322;-66
2022/02/16 07:35:55;;;;;;;3.20;0.63;;;7.50;99.90;7.40;99431.00;;;;4972904;28;87656;-67
2022/02/16 07:38:21;;;;;;;0.80;0.40;;;7.50;99.90;7.40;99439.00;;;;4992884;28;87291;-66
2022/02/16 07:40:46;;;;;;;0.90;0.53;;;7.50;99.90;7.40;99425.00;;;;4977071;28;87453;-67
2022/02/16 07:43:12;;;;;;;0.47;0.30;;;7.50;99.90;7.30;99417.00;;;;4976839;28;117157;-67
2022/02/16 07:45:38;;;;;;;0.40;0.30;;;7.50;99.90;7.30;99411.00;;;;4968223;28;89070;-67
2022/02/16 07:48:04;;;;;;;0.47;0.40;;;7.40;99.90;7.20;99409.00;;;;4957263;28;109394;-66
2022/02/16 07:50:30;;;;;;;0.20;0.20;;;7.30;99.90;7.20;99410.00;;;;4972843;28;87813;-67
2022/02/16 07:52:59;;;;;;;0.80;0.43;;;7.30;99.90;7.10;99402.00;;;;4958820;28;104743;-67
2022/02/16 07:55:28;;;;;;;0.67;0.30;;;7.30;99.90;7.10;99404.00;;;;4957819;28;88773;-67
2022/02/16 07:57:58;;;;;;;0.23;0.23;;;7.20;99.90;7.10;99404.00;;;;4957653;28;87746;-67
2022/02/16 08:00:25;;;;;;;0.77;0.40;;;7.20;99.90;7.10;99390.00;;;;4957993;28;87549;-67
2022/02/16 08:02:51;;;;;;;0.77;0.40;;;6.90;99.90;7.00;99397.00;;;;4973867;28;86863;-67
2022/02/16 08:05:16;;;;;;;0.43;0.33;;;7.10;99.90;7.00;99393.00;;;;4956652;28;117536;-67
2022/02/16 08:07:45;;;;;;;0.30;0.30;;;7.10;99.90;7.00;99379.00;;;;4972402;28;90904;-66
2022/02/16 08:10:11;;;;;;;0.30;0.30;;;7.10;99.90;7.00;99390.00;;;;4956477;28;109275;-67
2022/02/16 08:12:58;;;;;;;0.87;0.30;;;7.20;99.90;7.00;99372.00;;;;4967759;28;117610;-67
2022/02/16 08:15:31;;;;;;;0.10;0.10;;;7.20;99.90;7.00;99367.00;;;;4965857;28;87690;-67
2022/02/16 08:17:57;;;;;;;1.03;0.50;;;7.20;99.90;7.00;99380.00;;;;4979325;28;87919;-66
2022/02/16 08:20:23;;;;;;;0.63;0.40;;;7.20;99.90;7.00;99364.00;;;;4957819;28;87655;-67
2022/02/16 08:22:48;;;;;;;0.50;0.20;;;7.10;99.90;7.00;99366.00;;;;4956100;28;118078;-67
2022/02/16 08:25:14;;;;;;;4.03;0.67;;;7.10;99.90;7.00;99365.00;;;;4956341;28;109344;-66
2022/02/16 08:27:43;;;;;;;0.77;0.20;;;7.00;99.90;7.00;99346.00;;;;4958128;28;87012;-66
2022/02/16 08:30:11;;;;;;;0.23;0.20;;;7.10;99.90;7.00;99346.00;;;;4957782;28;88244;-67
2022/02/16 08:32:38;;;;;;;0.50;0.30;;;7.10;99.90;7.00;99343.00;;;;4957199;28;94285;-68
2022/02/16 08:35:07;;;;;;;0.83;0.40;;;7.10;99.90;7.10;99333.00;;;;4971326;28;88762;-66
2022/02/16 08:37:33;;;;;;;1.20;0.40;;;7.10;99.90;7.00;99333.00;;;;4956737;28;87943;-67
2022/02/16 08:40:00;;;;;;;0.10;0.10;;;7.10;99.90;7.00;99339.00;;;;4957919;28;87694;-68
2022/02/16 08:42:25;;;;;;;0.77;0.30;;;7.10;99.90;7.00;99331.00;;;;4956764;28;88768;-68
2022/02/16 08:44:51;;;;;;;0.37;0.23;;;7.10;99.90;7.00;99314.00;;;;4955959;28;117479;-66
2022/02/16 08:47:17;;;;;;;0.60;0.47;;;7.10;99.90;7.00;99318.00;;;;4957665;28;87915;-67
2022/02/16 08:49:44;;;;;;;0.63;0.30;;;7.10;99.90;7.00;99300.00;;;;4957249;28;87814;-69
2022/02/16 08:52:11;;;;;;;0.40;0.40;;;7.00;99.90;6.90;99294.00;;;;4972049;28;89823;-68
2022/02/16 08:54:37;;;;;;;0.53;0.20;;;7.10;99.90;6.90;99307.00;;;;4956545;28;87902;-66
2022/02/16 08:57:04;;;;;;;0.77;0.30;;;7.00;99.90;6.90;99276.00;;;;4957636;28;87640;-66
2022/02/16 08:59:30;;;;;;;0.30;0.30;;;7.00;99.90;6.90;99291.00;;;;4956538;28;88798;-67
2022/02/16 09:01:57;;;;;;;0.53;0.20;;;7.00;99.90;6.90;99277.00;;;;4956168;28;100286;-65
2022/02/16 09:04:23;;;;;;;0.20;0.20;;;7.00;99.90;6.90;99274.00;;;;4956886;28;88017;-65
2022/02/16 09:09:37;;;;;;;0.33;0.33;;;7.00;99.90;6.90;99279.00;;;;4956288;28;87764;-67
2022/02/16 09:12:04;;;;;;;0.10;0.10;;;7.00;99.90;6.90;99262.00;;;;4956725;28;89214;-66
2022/02/16 09:14:30;;;;;;;0.30;0.20;;;7.00;99.90;6.90;99248.00;;;;4955924;28;103059;-66
2022/02/16 09:16:56;;;;;;;0.27;0.27;;;7.00;99.90;6.90;99256.00;;;;4955931;28;111075;-65
2022/02/16 09:19:22;;;;;;;0.63;0.37;;;7.00;99.90;7.00;99254.00;;;;4956291;28;94855;-64
2022/02/16 09:21:48;;;;;;;0.30;0.30;;;7.10;99.90;7.00;99239.00;;;;4956207;28;89107;-66
2022/02/16 09:24:13;;;;;;;0.30;0.30;;;7.10;99.90;7.00;99239.00;;;;4955446;28;88634;-65
2022/02/16 09:26:39;;;;;;;0.87;0.47;;;7.10;99.90;7.00;99237.00;;;;4955801;28;110947;-66
2022/02/16 09:29:05;;;;;;;0.40;0.40;;;7.10;99.90;7.00;99235.00;;;;4955919;28;108993;-65
2022/02/16 09:31:30;;;;;;;0.43;0.30;;;7.10;99.90;7.10;99234.00;;;;4956043;28;112927;-66
2022/02/16 09:33:56;;;;;;;0.60;0.40;;;7.10;99.90;7.10;99234.00;;;;4970193;28;87878;-67
2022/02/16 09:36:22;;;;;;;0.30;0.30;;;7.10;99.90;7.10;99230.00;;;;4956327;28;87691;-66
2022/02/16 09:38:47;;;;;;;0.67;0.40;;;7.20;99.90;7.10;99238.00;;;;4956239;28;87766;-66
2022/02/16 09:41:16;;;;;;;0.30;0.30;;;7.20;99.90;7.10;99219.00;;;;4957003;28;87702;-65
2022/02/16 09:43:46;;;;;;;0.27;0.27;;;7.20;99.90;7.10;99208.00;;;;4955745;28;88011;-66
2022/02/16 09:46:11;;;;;;;0.37;0.30;;;7.20;99.90;7.10;99204.00;;;;4956110;28;90444;-66
2022/02/16 09:48:40;;;;;;;0.60;0.47;;;7.20;99.90;7.00;99192.00;;;;4954475;28;108375;-68
2022/02/16 09:51:06;;;;;;;1.03;0.50;;;7.10;99.90;7.00;99197.00;;;;4970958;28;96599;-67
2022/02/16 09:53:32;;;;;;;0.37;0.37;;;7.10;99.90;7.00;99192.00;;;;4968944;28;118239;-67
2022/02/16 09:56:01;;;;;;;0.63;0.47;;;7.20;99.90;7.10;99181.00;;;;4969831;28;110764;-67
2022/02/16 09:58:26;;;;;;;1.80;0.47;;;7.20;99.90;7.10;99187.00;;;;4956681;28;87839;-68
2022/02/16 10:01:15;;;;;;;1.20;0.80;;;7.20;99.90;7.10;99177.00;;;;4955063;28;106338;-68
2022/02/16 10:04:02;;;;;;;0.63;0.30;;;7.20;99.90;7.10;99174.00;;;;4956090;28;87939;-69
2022/02/16 10:06:39;;;;;;;0.20;0.20;;;7.20;99.90;7.20;99173.00;;;;4971658;28;86960;-68
2022/02/16 10:09:07;;;;;;;0.87;0.27;;;7.30;99.90;7.30;99168.00;;;;4956059;28;87709;-68
2022/02/16 10:11:35;;;;;;;0.90;0.50;;;7.40;99.90;7.40;99172.00;;;;4955448;28;95406;-67
2022/02/16 10:14:22;;;;;;;1.40;0.50;;;7.40;99.90;7.40;99148.00;;;;4968814;28;118868;-68
2022/02/16 10:16:49;;;;;;;0.40;0.30;;;7.50;99.90;7.50;99151.00;;;;4970669;28;87667;-68
2022/02/16 10:19:15;;;;;;;0.30;0.23;;;7.60;99.90;7.60;99140.00;;;;4955422;28;87728;-67
2022/02/16 10:22:06;;;;;;;0.77;0.47;;;7.60;99.90;7.70;99143.00;;;;4955438;28;89178;-68
2022/02/16 10:24:33;;;;;;;1.07;0.80;;;7.70;99.90;7.80;99139.00;;;;4955233;28;87987;-67
2022/02/16 10:26:59;;;;;;;0.20;0.20;;;7.80;99.90;7.90;99136.00;;;;4955980;28;87724;-66
2022/02/16 10:29:33;;;;;;;0.30;0.30;;;7.90;99.90;8.00;99136.00;;;;4970525;28;87859;-65
2022/02/16 10:32:00;;;;;;;0.40;0.20;;;8.00;99.90;8.00;99124.00;;;;4970888;28;87392;-66
2022/02/16 10:34:49;;;;;;;0.30;0.20;;;8.10;99.90;8.10;99120.00;;;;4955376;28;88155;-65
2022/02/16 10:37:20;;;;;;;0.87;0.43;;;8.10;99.90;8.10;99110.00;;;;4973943;28;88015;-65
2022/02/16 10:40:10;;;;;;;0.40;0.20;;;8.10;99.90;8.10;99111.00;;;;4973431;28;88908;-66
2022/02/16 10:42:57;;;;;;;0.73;0.37;;;8.20;99.90;8.20;99113.00;;;;4958920;28;88044;-64
2022/02/16 10:45:29;;;;;;;0.57;0.40;;;8.20;99.90;8.30;99095.00;;;;4973416;28;88547;-65
2022/02/16 10:48:07;;;;;;;0.37;0.30;;;8.30;99.90;8.30;99092.00;;;;4973861;28;87733;-64
2022/02/16 10:50:37;;;;;;;0.63;0.33;;;8.40;99.90;8.40;99102.00;;;;4959287;28;87558;-65
2022/02/16 10:53:06;;;;;;;0.27;0.23;;;8.50;99.90;8.50;99088.00;;;;4958359;28;88355;-65
2022/02/16 10:55:46;;;;;;;1.67;0.40;;;8.50;99.90;8.50;99089.00;;;;4958596;28;88722;-64
2022/02/16 10:58:24;;;;;;;0.30;0.30;;;8.50;99.90;8.40;99095.00;;;;4959504;28;86939;-64
2022/02/16 11:00:53;;;;;;;0.50;0.17;;;8.50;99.90;8.30;99076.00;;;;4959359;28;88197;-65
2022/02/16 11:03:31;;;;;;;0.10;0.10;;;8.40;99.90;8.10;99084.00;;;;4958987;28;88164;-64
2022/02/16 11:06:00;;;;;;;0.50;0.20;;;8.30;99.90;8.00;99082.00;;;;4958295;28;88591;-67
2022/02/16 11:08:29;;;;;;;1.47;0.40;;;8.10;99.90;7.90;99080.00;;;;4959150;28;88215;-66